Time;durP1;ratioP1;P1;durP2;ratioP2;P2;SDS_P1;SDS_P2;PMS_P1;PMS_P2;Temp;Humidity;BMP_temperature;BMP_pressure;BME280_temperature;BME280_humidity;BME280_pressure;Samples;Min_cycle;Max_cycle;Signal;HPM_P1;HPM_P2
2023/08/01 00:01:40;;;;;;;26.97;8.20;;;;;;;;;;5049330;28;20032;-74
2023/08/01 00:04:05;;;;;;;49.57;14.20;;;;;;;;;;5049356;28;20341;-74
2023/08/01 00:06:30;;;;;;;70.80;21.77;;;;;;;;;;5047967;28;20367;-74
2023/08/01 00:08:55;;;;;;;70.00;22.33;;;;;;;;;;5049203;28;20326;-74
2023/08/01 00:11:21;;;;;;;57.70;18.20;;;;;;;;;;5046485;28;20321;-74
2023/08/01 00:13:46;;;;;;;76.67;23.17;;;;;;;;;;5047715;28;20282;-74
2023/08/01 00:16:11;;;;;;;71.75;20.75;;;;;;;;;;5047054;28;20604;-74
2023/08/01 00:18:36;;;;;;;64.97;21.92;;;;;;;;;;5048573;28;20024;-74
2023/08/01 00:21:02;;;;;;;49.60;11.80;;;;;;;;;;5047338;28;20037;-74
2023/08/01 00:23:27;;;;;;;65.60;20.20;;;;;;;;;;5047794;28;20271;-74
2023/08/01 00:25:53;;;;;;;81.60;26.20;;;;;;;;;;5047880;28;20032;-74
2023/08/01 00:28:18;;;;;;;74.80;24.95;;;;;;;;;;5047921;28;20640;-74
2023/08/01 00:30:43;;;;;;;88.40;26.90;;;;;;;;;;5050187;28;20021;-74
2023/08/01 00:33:09;;;;;;;74.03;27.38;;;;;;;;;;5049493;28;20632;-74
2023/08/01 00:35:34;;;;;;;75.70;23.53;;;;;;;;;;5049915;28;20347;-74
2023/08/01 00:37:59;;;;;;;64.67;20.57;;;;;;;;;;5049565;28;20298;-74
2023/08/01 00:40:29;;;;;;;56.23;14.93;;;;;;;;;;5048080;28;20274;-74
2023/08/01 00:42:56;;;;;;;51.63;18.02;;;;;;;;;;5048663;28;20276;-74
2023/08/01 00:45:24;;;;;;;54.88;18.67;;;;;;;;;;5049874;28;20025;-74
2023/08/01 00:47:49;;;;;;;48.03;15.00;;;;;;;;;;5031957;28;20053;-74
2023/08/01 00:50:14;;;;;;;45.75;13.98;;;;;;;;;;5047957;28;20059;-74
2023/08/01 00:52:39;;;;;;;22.60;7.90;;;;;;;;;;5045887;28;20055;-74
2023/08/01 00:55:05;;;;;;;21.87;8.20;;;;;;;;;;5046839;28;20267;-74
2023/08/01 00:57:30;;;;;;;27.80;8.20;;;;;;;;;;5046246;28;20652;-74
2023/08/01 00:59:55;;;;;;;26.15;9.25;;;;;;;;;;5049129;28;20017;-74
2023/08/01 01:02:21;;;;;;;18.48;6.95;;;;;;;;;;5052150;28;20090;-74
2023/08/01 01:04:46;;;;;;;23.73;6.87;;;;;;;;;;5050831;28;20430;-74
2023/08/01 01:07:11;;;;;;;18.67;5.68;;;;;;;;;;5044668;28;20017;-74
2023/08/01 01:09:37;;;;;;;15.10;4.93;;;;;;;;;;5052322;28;20032;-74
2023/08/01 01:12:04;;;;;;;18.20;3.83;;;;;;;;;;5050560;28;20013;-74
2023/08/01 01:14:29;;;;;;;13.70;4.05;;;;;;;;;;5050336;28;20078;-74
2023/08/01 01:16:54;;;;;;;11.10;2.97;;;;;;;;;;5049868;28;20487;-74
2023/08/01 01:19:20;;;;;;;6.20;1.55;;;;;;;;;;5051102;28;20301;-74
2023/08/01 01:21:46;;;;;;;6.45;2.35;;;;;;;;;;5051149;28;20036;-74
2023/08/01 01:24:12;;;;;;;8.18;2.08;;;;;;;;;;5051275;28;20035;-74
2023/08/01 01:26:40;;;;;;;6.93;1.40;;;;;;;;;;5050640;28;20163;-74
2023/08/01 01:29:05;;;;;;;5.25;2.13;;;;;;;;;;5035451;28;20017;-74
2023/08/01 01:31:32;;;;;;;7.07;1.67;;;;;;;;;;5051538;28;20032;-75
2023/08/01 01:33:57;;;;;;;2.35;1.40;;;;;;;;;;5052416;28;20458;-75
2023/08/01 01:36:22;;;;;;;9.35;1.55;;;;;;;;;;5052387;28;20066;-75
2023/08/01 01:38:48;;;;;;;2.65;1.00;;;;;;;;;;5053320;28;20048;-75
2023/08/01 01:41:13;;;;;;;2.47;1.20;;;;;;;;;;5053416;28;20028;-75
2023/08/01 01:43:38;;;;;;;2.40;1.03;;;;;;;;;;5049521;28;20533;-75
2023/08/01 01:46:03;;;;;;;3.37;0.63;;;;;;;;;;5051893;28;20291;-74
2023/08/01 01:48:29;;;;;;;3.00;1.58;;;;;;;;;;5051860;28;20283;-74
2023/08/01 01:50:54;;;;;;;3.33;1.90;;;;;;;;;;5053310;28;20425;-74
2023/08/01 01:53:19;;;;;;;2.55;1.05;;;;;;;;;;5053061;28;20282;-74
2023/08/01 01:55:44;;;;;;;2.13;1.00;;;;;;;;;;5049753;28;20013;-74
2023/08/01 01:58:09;;;;;;;2.00;1.10;;;;;;;;;;5051498;28;20319;-74
2023/08/01 02:00:35;;;;;;;2.60;0.90;;;;;;;;;;5051609;28;20272;-74
2023/08/01 02:03:02;;;;;;;5.63;1.58;;;;;;;;;;5051528;28;20336;-75
2023/08/01 02:05:27;;;;;;;4.05;2.00;;;;;;;;;;5048353;28;20025;-75
2023/08/01 02:07:52;;;;;;;12.53;2.07;;;;;;;;;;5051204;28;20421;-74
2023/08/01 02:10:18;;;;;;;8.23;2.23;;;;;;;;;;5050444;28;20271;-74
2023/08/01 02:12:43;;;;;;;6.50;2.47;;;;;;;;;;5047940;28;20276;-75
2023/08/01 02:15:08;;;;;;;2.90;1.55;;;;;;;;;;5050503;28;20259;-75
2023/08/01 02:17:33;;;;;;;7.55;2.03;;;;;;;;;;5049081;28;20116;-75
2023/08/01 02:19:59;;;;;;;3.27;1.27;;;;;;;;;;5050038;28;20021;-75
2023/08/01 02:22:24;;;;;;;5.87;1.43;;;;;;;;;;5050894;28;20333;-75
2023/08/01 02:24:49;;;;;;;2.88;1.15;;;;;;;;;;5048771;28;20082;-75
2023/08/01 02:27:15;;;;;;;2.43;1.17;;;;;;;;;;5043754;28;20013;-75
2023/08/01 02:29:40;;;;;;;3.87;1.43;;;;;;;;;;5051325;28;20341;-75
2023/08/01 02:32:05;;;;;;;2.50;0.87;;;;;;;;;;5051720;28;20362;-75
2023/08/01 02:34:30;;;;;;;3.05;0.70;;;;;;;;;;5051683;28;20255;-75
2023/08/01 02:36:55;;;;;;;3.50;1.17;;;;;;;;;;5049912;28;20021;-74
2023/08/01 02:39:21;;;;;;;2.70;1.07;;;;;;;;;;5050786;28;20720;-74
2023/08/01 02:41:46;;;;;;;4.97;1.50;;;;;;;;;;5051413;28;20103;-74
2023/08/01 02:44:11;;;;;;;7.17;3.07;;;;;;;;;;5051918;28;20251;-74
2023/08/01 02:46:36;;;;;;;8.93;3.50;;;;;;;;;;5050785;28;20275;-74
2023/08/01 02:49:01;;;;;;;7.77;3.53;;;;;;;;;;5051464;28;20031;-74
2023/08/01 02:51:26;;;;;;;5.57;3.13;;;;;;;;;;5051919;28;20274;-74
2023/08/01 02:53:52;;;;;;;7.60;4.15;;;;;;;;;;5048555;28;20629;-74
2023/08/01 02:56:17;;;;;;;11.67;3.33;;;;;;;;;;5050414;28;20376;-74
2023/08/01 02:58:42;;;;;;;7.47;2.90;;;;;;;;;;5049042;28;20279;-74
2023/08/01 03:01:09;;;;;;;5.00;2.42;;;;;;;;;;5048188;28;20025;-74
2023/08/01 03:03:35;;;;;;;7.72;2.38;;;;;;;;;;5044846;28;20091;-75
2023/08/01 03:06:01;;;;;;;6.97;2.63;;;;;;;;;;5037580;28;20112;-74
2023/08/01 03:08:26;;;;;;;5.15;2.60;;;;;;;;;;5042021;28;20175;-74
2023/08/01 03:10:51;;;;;;;7.93;3.20;;;;;;;;;;5035688;28;20025;-74
2023/08/01 03:13:16;;;;;;;13.93;4.33;;;;;;;;;;5030517;28;20274;-74
2023/08/01 03:15:41;;;;;;;14.70;4.30;;;;;;;;;;5028453;28;20283;-74
2023/08/01 03:18:07;;;;;;;6.50;4.23;;;;;;;;;;5035976;28;20344;-74
2023/08/01 03:20:32;;;;;;;6.37;3.40;;;;;;;;;;5039243;28;20029;-74
2023/08/01 03:22:57;;;;;;;10.52;5.82;;;;;;;;;;5047578;28;20134;-74
2023/08/01 03:25:22;;;;;;;8.73;4.90;;;;;;;;;;5049422;28;20025;-74
2023/08/01 03:27:47;;;;;;;12.77;6.82;;;;;;;;;;5045948;28;20271;-74
2023/08/01 03:30:13;;;;;;;13.70;7.27;;;;;;;;;;5049607;28;20091;-74
2023/08/01 03:32:38;;;;;;;13.03;7.33;;;;;;;;;;5049046;28;20277;-74
2023/08/01 03:35:04;;;;;;;17.50;7.53;;;;;;;;;;5046790;28;20263;-74
2023/08/01 03:37:29;;;;;;;12.23;6.00;;;;;;;;;;5040583;28;20658;-74
2023/08/01 03:39:54;;;;;;;9.37;5.20;;;;;;;;;;5044603;28;20032;-74
2023/08/01 03:42:20;;;;;;;14.40;5.50;;;;;;;;;;5047280;28;20092;-74
2023/08/01 03:44:45;;;;;;;11.90;5.93;;;;;;;;;;5049424;28;20032;-73
2023/08/01 03:47:10;;;;;;;17.87;4.93;;;;;;;;;;5046612;28;20263;-71
2023/08/01 03:49:35;;;;;;;15.18;5.88;;;;;;;;;;5046383;28;20617;-71
2023/08/01 03:52:00;;;;;;;13.47;5.33;;;;;;;;;;5042812;28;20444;-71
2023/08/01 03:54:26;;;;;;;10.47;4.67;;;;;;;;;;5042786;28;20017;-71
2023/08/01 03:56:51;;;;;;;13.55;5.57;;;;;;;;;;5045843;28;20307;-74
2023/08/01 03:59:17;;;;;;;13.00;5.67;;;;;;;;;;5043552;28;20036;-73
2023/08/01 04:01:43;;;;;;;10.35;4.72;;;;;;;;;;5046095;28;20267;-74
2023/08/01 04:04:08;;;;;;;17.92;5.22;;;;;;;;;;5048925;28;20432;-74
2023/08/01 04:06:33;;;;;;;12.13;5.25;;;;;;;;;;5045814;28;20705;-74
2023/08/01 04:08:59;;;;;;;9.63;5.70;;;;;;;;;;5046431;28;20057;-74
2023/08/01 04:11:25;;;;;;;9.88;5.95;;;;;;;;;;5046700;28;20267;-73
2023/08/01 04:13:50;;;;;;;9.25;5.88;;;;;;;;;;5051783;28;20047;-73
2023/08/01 04:16:15;;;;;;;15.97;7.20;;;;;;;;;;5050921;28;20482;-74
2023/08/01 04:18:40;;;;;;;12.70;6.60;;;;;;;;;;5049121;28;20267;-74
2023/08/01 04:21:06;;;;;;;14.95;7.15;;;;;;;;;;5043641;28;20275;-74
2023/08/01 04:23:31;;;;;;;19.33;7.03;;;;;;;;;;5047148;28;20032;-74
2023/08/01 04:25:58;;;;;;;12.20;7.10;;;;;;;;;;5048348;28;20053;-74
2023/08/01 04:28:23;;;;;;;13.43;7.40;;;;;;;;;;5047183;28;20029;-74
2023/08/01 04:30:51;;;;;;;14.90;7.37;;;;;;;;;;5042656;28;20024;-74
2023/08/01 04:33:17;;;;;;;15.07;7.78;;;;;;;;;;5046750;28;20299;-74
2023/08/01 04:35:42;;;;;;;15.90;8.73;;;;;;;;;;5044949;28;20142;-74
2023/08/01 04:38:08;;;;;;;19.70;8.40;;;;;;;;;;5045985;28;20017;-74
2023/08/01 04:40:33;;;;;;;23.50;9.30;;;;;;;;;;5046812;28;20268;-73
2023/08/01 04:42:59;;;;;;;20.85;8.40;;;;;;;;;;5048764;28;20021;-74
2023/08/01 04:45:24;;;;;;;25.87;9.63;;;;;;;;;;5044625;28;20021;-74
2023/08/01 04:47:49;;;;;;;20.30;8.73;;;;;;;;;;5047662;28;20354;-74
2023/08/01 04:50:14;;;;;;;18.13;8.43;;;;;;;;;;5043106;28;20924;-74
2023/08/01 04:52:39;;;;;;;19.50;9.10;;;;;;;;;;5044586;28;20349;-74
2023/08/01 04:55:05;;;;;;;18.50;9.33;;;;;;;;;;5044656;28;20049;-74
2023/08/01 04:57:30;;;;;;;18.77;8.15;;;;;;;;;;5045545;28;20369;-74
2023/08/01 04:59:55;;;;;;;16.00;7.93;;;;;;;;;;5043953;28;20033;-74
2023/08/01 05:02:20;;;;;;;15.88;8.02;;;;;;;;;;5039204;28;20036;-74
2023/08/01 05:04:45;;;;;;;14.60;8.20;;;;;;;;;;5045217;28;20029;-74
2023/08/01 05:07:11;;;;;;;24.37;8.73;;;;;;;;;;5045706;28;20276;-74
2023/08/01 05:09:36;;;;;;;29.47;8.97;;;;;;;;;;5046750;28;20279;-74
2023/08/01 05:12:01;;;;;;;15.37;7.93;;;;;;;;;;5040921;28;20728;-74
2023/08/01 05:14:26;;;;;;;17.27;8.90;;;;;;;;;;5042565;28;20282;-74
2023/08/01 05:16:51;;;;;;;28.80;8.73;;;;;;;;;;5045222;28;20275;-74
2023/08/01 05:19:16;;;;;;;16.47;7.27;;;;;;;;;;5043356;28;20361;-74
2023/08/01 05:21:42;;;;;;;15.37;7.17;;;;;;;;;;5024174;28;20326;-74
2023/08/01 05:24:07;;;;;;;13.10;6.83;;;;;;;;;;5038785;28;20315;-74
2023/08/01 05:26:32;;;;;;;18.70;7.77;;;;;;;;;;5024402;28;20378;-73
2023/08/01 05:28:57;;;;;;;17.63;7.25;;;;;;;;;;5042042;28;20294;-73
2023/08/01 05:31:22;;;;;;;19.73;7.33;;;;;;;;;;5043008;28;20035;-73
2023/08/01 05:33:47;;;;;;;16.13;7.37;;;;;;;;;;5045680;28;20625;-74
2023/08/01 05:36:13;;;;;;;20.33;7.57;;;;;;;;;;5039738;28;20015;-73
2023/08/01 05:38:38;;;;;;;16.77;8.47;;;;;;;;;;5041026;28;20792;-73
2023/08/01 05:41:03;;;;;;;18.63;7.87;;;;;;;;;;5044250;28;20276;-73
2023/08/01 05:43:28;;;;;;;25.57;8.50;;;;;;;;;;5047108;28;20275;-73
2023/08/01 05:45:53;;;;;;;21.93;8.30;;;;;;;;;;5041717;28;20676;-73
2023/08/01 05:48:18;;;;;;;27.73;9.93;;;;;;;;;;5045869;28;20295;-73
2023/08/01 05:50:44;;;;;;;24.63;10.93;;;;;;;;;;5050351;28;20024;-73
2023/08/01 05:53:09;;;;;;;24.43;10.37;;;;;;;;;;5051105;28;20016;-73
2023/08/01 05:55:34;;;;;;;26.40;10.63;;;;;;;;;;5052519;28;20271;-73
2023/08/01 05:57:59;;;;;;;29.25;10.65;;;;;;;;;;5051497;28;20028;-73
2023/08/01 06:00:24;;;;;;;16.40;8.13;;;;;;;;;;5053118;28;20631;-73
2023/08/01 06:02:50;;;;;;;26.37;10.50;;;;;;;;;;5050383;28;20268;-73
2023/08/01 06:05:15;;;;;;;26.87;9.77;;;;;;;;;;5049861;28;20267;-73
2023/08/01 06:07:40;;;;;;;25.08;8.93;;;;;;;;;;5048750;28;20290;-73
2023/08/01 06:10:06;;;;;;;23.00;8.93;;;;;;;;;;5049366;28;20021;-73
2023/08/01 06:12:31;;;;;;;19.90;9.75;;;;;;;;;;5048786;28;20055;-73
2023/08/01 06:14:56;;;;;;;18.33;8.63;;;;;;;;;;5052622;28;20021;-73
2023/08/01 06:17:21;;;;;;;21.88;9.60;;;;;;;;;;5046433;28;20259;-73
2023/08/01 06:19:47;;;;;;;22.70;9.53;;;;;;;;;;5049996;28;20052;-73
2023/08/01 06:22:12;;;;;;;30.40;11.55;;;;;;;;;;5051061;28;20359;-73
2023/08/01 06:24:37;;;;;;;21.47;9.60;;;;;;;;;;5046420;28;20079;-73
2023/08/01 06:27:03;;;;;;;28.17;10.15;;;;;;;;;;5056339;28;20302;-73
2023/08/01 06:29:29;;;;;;;26.80;7.97;;;;;;;;;;5050970;28;20551;-73
2023/08/01 06:31:54;;;;;;;19.00;6.05;;;;;;;;;;5047146;28;20024;-73
2023/08/01 06:34:19;;;;;;;17.97;6.53;;;;;;;;;;5044746;28;20022;-73
2023/08/01 06:36:44;;;;;;;15.20;5.67;;;;;;;;;;5046394;28;20592;-73
2023/08/01 06:39:10;;;;;;;15.48;5.85;;;;;;;;;;5051346;28;20355;-73
2023/08/01 06:41:36;;;;;;;13.10;5.82;;;;;;;;;;5051061;28;20021;-74
2023/08/01 06:44:01;;;;;;;12.50;6.35;;;;;;;;;;5050952;28;20688;-73
2023/08/01 06:46:26;;;;;;;20.27;6.80;;;;;;;;;;5046825;28;20025;-73
2023/08/01 06:48:51;;;;;;;16.65;7.22;;;;;;;;;;5047594;28;20798;-73
2023/08/01 06:51:16;;;;;;;13.73;5.97;;;;;;;;;;5049891;28;20025;-73
2023/08/01 06:53:42;;;;;;;16.73;8.20;;;;;;;;;;5051472;28;20739;-73
2023/08/01 06:56:07;;;;;;;22.33;7.72;;;;;;;;;;5048302;28;20064;-73
2023/08/01 06:58:32;;;;;;;18.90;7.60;;;;;;;;;;5043519;28;20056;-73
2023/08/01 07:00:58;;;;;;;19.57;7.07;;;;;;;;;;5042570;28;20025;-73
2023/08/01 07:03:23;;;;;;;19.60;7.28;;;;;;;;;;5046471;28;20346;-73
2023/08/01 07:05:48;;;;;;;20.00;7.38;;;;;;;;;;5047218;28;20021;-73
2023/08/01 07:08:13;;;;;;;16.77;6.57;;;;;;;;;;5046078;28;20029;-72
2023/08/01 07:10:39;;;;;;;20.20;5.07;;;;;;;;;;5047620;28;20036;-73
2023/08/01 07:13:04;;;;;;;13.40;6.35;;;;;;;;;;5049621;28;20032;-73
2023/08/01 07:15:30;;;;;;;17.38;6.72;;;;;;;;;;5043838;28;20017;-73
2023/08/01 07:17:55;;;;;;;23.88;6.65;;;;;;;;;;5047768;28;20462;-73
2023/08/01 07:20:20;;;;;;;17.10;6.35;;;;;;;;;;5049485;28;20030;-73
2023/08/01 07:22:45;;;;;;;21.27;6.97;;;;;;;;;;5049626;28;20043;-73
2023/08/01 07:25:11;;;;;;;18.57;6.50;;;;;;;;;;5050149;28;20033;-73
2023/08/01 07:27:37;;;;;;;18.33;5.95;;;;;;;;;;5044391;28;20334;-73
2023/08/01 07:30:03;;;;;;;19.85;6.25;;;;;;;;;;5045703;28;20052;-72
2023/08/01 07:32:28;;;;;;;13.25;6.30;;;;;;;;;;5045998;28;20614;-73
2023/08/01 07:34:53;;;;;;;12.20;5.93;;;;;;;;;;5046541;28;20063;-72
2023/08/01 07:37:18;;;;;;;10.20;5.37;;;;;;;;;;5049953;28;20693;-73
2023/08/01 07:39:43;;;;;;;18.80;5.65;;;;;;;;;;5048188;28;20024;-73
2023/08/01 07:42:09;;;;;;;13.25;5.80;;;;;;;;;;5048609;28;20021;-73
2023/08/01 07:44:34;;;;;;;13.43;5.47;;;;;;;;;;5049709;28;20509;-73
2023/08/01 07:46:59;;;;;;;18.80;4.97;;;;;;;;;;5045640;28;20028;-73
2023/08/01 07:49:24;;;;;;;16.45;5.65;;;;;;;;;;5048653;28;20279;-73
2023/08/01 07:51:50;;;;;;;12.87;5.80;;;;;;;;;;5049865;28;20099;-73
2023/08/01 07:54:16;;;;;;;18.95;5.75;;;;;;;;;;5045975;28;20096;-73
2023/08/01 07:56:43;;;;;;;12.97;6.37;;;;;;;;;;5048151;28;20107;-73
2023/08/01 07:59:08;;;;;;;21.83;6.55;;;;;;;;;;5048005;28;20271;-73
2023/08/01 08:01:33;;;;;;;16.45;5.75;;;;;;;;;;5045231;28;20074;-73
2023/08/01 08:03:59;;;;;;;16.03;5.37;;;;;;;;;;5048336;28;20397;-73
2023/08/01 08:06:24;;;;;;;14.03;5.50;;;;;;;;;;5047604;28;20112;-73
2023/08/01 08:08:49;;;;;;;16.73;5.40;;;;;;;;;;5049505;28;20333;-73
2023/08/01 08:11:15;;;;;;;11.65;5.32;;;;;;;;;;5049685;28;20048;-73
2023/08/01 08:13:41;;;;;;;12.32;4.57;;;;;;;;;;5047054;28;20104;-72
2023/08/01 08:16:06;;;;;;;16.53;6.27;;;;;;;;;;5046054;28;20233;-72
2023/08/01 08:18:31;;;;;;;17.83;6.13;;;;;;;;;;5048723;28;20298;-72
2023/08/01 08:20:57;;;;;;;20.65;4.80;;;;;;;;;;5047768;28;20033;-72
2023/08/01 08:23:22;;;;;;;13.18;4.95;;;;;;;;;;5049110;28;20039;-72
2023/08/01 08:25:47;;;;;;;14.73;5.47;;;;;;;;;;5048666;28;20029;-72
2023/08/01 08:28:13;;;;;;;20.95;5.38;;;;;;;;;;5045692;28;20284;-72
2023/08/01 08:30:38;;;;;;;17.98;5.93;;;;;;;;;;5045823;28;20013;-73
2023/08/01 08:33:04;;;;;;;18.02;5.15;;;;;;;;;;5046698;28;20013;-70
2023/08/01 08:35:30;;;;;;;16.85;5.55;;;;;;;;;;5045761;28;20025;-70
2023/08/01 08:37:55;;;;;;;17.85;5.75;;;;;;;;;;5049383;28;20066;-70
2023/08/01 08:40:20;;;;;;;11.20;4.50;;;;;;;;;;5049264;28;20850;-70
2023/08/01 08:42:46;;;;;;;14.02;4.63;;;;;;;;;;5046103;28;20023;-69
2023/08/01 08:45:11;;;;;;;12.32;3.90;;;;;;;;;;5047724;28;20013;-69
2023/08/01 08:47:40;;;;;;;9.30;4.30;;;;;;;;;;5046636;28;20104;-69
2023/08/01 08:50:06;;;;;;;14.63;4.68;;;;;;;;;;5046337;28;20040;-69
2023/08/01 08:52:32;;;;;;;15.27;5.15;;;;;;;;;;5048421;28;20383;-69
2023/08/01 08:54:57;;;;;;;16.75;5.55;;;;;;;;;;5049241;28;20078;-71
2023/08/01 08:57:23;;;;;;;13.05;5.25;;;;;;;;;;5045522;28;21713;-69
2023/08/01 08:59:49;;;;;;;8.63;3.70;;;;;;;;;;5047516;28;20025;-70
2023/08/01 09:02:15;;;;;;;17.65;4.57;;;;;;;;;;5043952;28;20032;-70
2023/08/01 09:04:40;;;;;;;15.07;5.30;;;;;;;;;;5048508;28;20025;-70
2023/08/01 09:07:10;;;;;;;19.70;5.57;;;;;;;;;;5044660;28;20570;-69
2023/08/01 09:09:35;;;;;;;;;;;;;;;;;;5049532;28;20334;-70
2023/08/01 09:12:00;;;;;;;17.80;4.38;;;;;;;;;;5048328;28;19951;-70
2023/08/01 09:14:26;;;;;;;8.60;3.40;;;;;;;;;;5046282;28;20492;-70
2023/08/01 09:16:51;;;;;;;11.68;4.22;;;;;;;;;;5046583;28;20275;-69
2023/08/01 09:19:20;;;;;;;10.82;4.18;;;;;;;;;;5046397;28;20066;-70
2023/08/01 09:21:45;;;;;;;14.65;4.72;;;;;;;;;;5043654;28;20037;-70
2023/08/01 09:24:15;;;;;;;14.52;4.30;;;;;;;;;;5046443;28;20039;-70
2023/08/01 09:26:40;;;;;;;9.38;3.65;;;;;;;;;;5049551;28;20032;-69
2023/08/01 09:29:05;;;;;;;10.52;2.88;;;;;;;;;;5045799;28;20382;-69
2023/08/01 09:31:33;;;;;;;10.60;3.78;;;;;;;;;;5045252;28;20036;-69
2023/08/01 09:33:58;;;;;;;16.42;3.50;;;;;;;;;;5050493;28;20024;-70
2023/08/01 09:36:25;;;;;;;13.48;4.28;;;;;;;;;;5049130;28;20036;-71
2023/08/01 09:38:50;;;;;;;12.13;4.50;;;;;;;;;;5045507;28;20406;-71
2023/08/01 09:41:19;;;;;;;12.73;5.10;;;;;;;;;;5051187;28;20020;-72
2023/08/01 09:43:45;;;;;;;14.23;3.97;;;;;;;;;;5052793;28;20294;-72
2023/08/01 09:46:11;;;;;;;12.40;4.82;;;;;;;;;;5048300;28;20024;-72
2023/08/01 09:48:36;;;;;;;13.38;5.13;;;;;;;;;;5052976;28;20075;-72
2023/08/01 09:51:08;;;;;;;24.08;6.50;;;;;;;;;;5049804;28;20094;-73
2023/08/01 09:53:34;;;;;;;15.75;5.60;;;;;;;;;;5049843;28;20028;-72
2023/08/01 09:56:01;;;;;;;16.40;4.22;;;;;;;;;;5050846;28;20013;-72
2023/08/01 09:58:29;;;;;;;10.93;3.75;;;;;;;;;;5050457;28;20031;-72
2023/08/01 10:00:54;;;;;;;9.32;3.90;;;;;;;;;;5052190;28;20031;-72
2023/08/01 10:03:19;;;;;;;9.88;4.43;;;;;;;;;;5048214;28;20021;-71
2023/08/01 10:05:45;;;;;;;10.93;4.18;;;;;;;;;;5049541;28;20043;-71
2023/08/01 10:08:11;;;;;;;12.88;3.72;;;;;;;;;;5049678;28;20120;-72
2023/08/01 10:10:37;;;;;;;13.98;3.88;;;;;;;;;;5051179;28;21098;-72
2023/08/01 10:13:02;;;;;;;9.10;3.45;;;;;;;;;;5050833;28;20021;-72
2023/08/01 10:15:28;;;;;;;5.43;3.47;;;;;;;;;;5050384;28;20037;-72
2023/08/01 10:17:54;;;;;;;11.02;2.83;;;;;;;;;;5051363;28;20021;-72
2023/08/01 10:20:21;;;;;;;10.13;3.45;;;;;;;;;;5049228;28;20155;-72
2023/08/01 10:22:47;;;;;;;14.95;3.38;;;;;;;;;;5051045;28;20028;-72
2023/08/01 10:25:13;;;;;;;8.60;3.70;;;;;;;;;;5049792;28;20123;-72
2023/08/01 10:27:38;;;;;;;7.55;2.65;;;;;;;;;;5050358;28;20013;-72
2023/08/01 10:30:04;;;;;;;9.80;3.17;;;;;;;;;;5050909;28;20064;-72
2023/08/01 10:32:31;;;;;;;7.82;3.05;;;;;;;;;;5048023;28;20346;-72
2023/08/01 10:34:56;;;;;;;11.43;3.83;;;;;;;;;;5046348;28;20017;-72
2023/08/01 10:37:21;;;;;;;15.27;3.60;;;;;;;;;;5049583;28;20497;-71
2023/08/01 10:39:55;;;;;;;9.43;3.10;;;;;;;;;;5049358;28;20025;-72
2023/08/01 10:42:21;;;;;;;10.75;2.92;;;;;;;;;;5042719;28;20497;-71
2023/08/01 10:44:46;;;;;;;9.37;3.10;;;;;;;;;;5051501;28;20032;-72
2023/08/01 10:47:11;;;;;;;10.60;3.85;;;;;;;;;;5049870;28;20096;-73
2023/08/01 10:49:43;;;;;;;16.42;4.45;;;;;;;;;;5049759;28;20029;-73
2023/08/01 10:52:27;;;;;;;8.75;3.60;;;;;;;;;;5049663;28;20032;-73
2023/08/01 10:54:56;;;;;;;7.05;3.42;;;;;;;;;;5048584;28;20013;-73
2023/08/01 10:57:21;;;;;;;11.77;3.47;;;;;;;;;;5037796;28;20044;-73
2023/08/01 10:59:47;;;;;;;12.40;4.00;;;;;;;;;;5050841;28;20485;-73
2023/08/01 11:02:19;;;;;;;13.05;4.28;;;;;;;;;;5047821;28;20279;-72
2023/08/01 11:04:54;;;;;;;10.73;3.40;;;;;;;;;;5043225;28;20025;-73
2023/08/01 11:07:19;;;;;;;12.07;3.75;;;;;;;;;;5049642;28;20048;-72
2023/08/01 11:09:44;;;;;;;8.83;3.20;;;;;;;;;;5046086;28;21722;-72
2023/08/01 11:12:09;;;;;;;10.30;3.73;;;;;;;;;;5047791;28;20021;-72
2023/08/01 11:14:34;;;;;;;11.40;3.70;;;;;;;;;;5051046;28;20321;-72
2023/08/01 11:17:00;;;;;;;7.57;2.97;;;;;;;;;;5047184;28;20295;-72
2023/08/01 11:19:25;;;;;;;5.45;2.97;;;;;;;;;;5049233;28;20278;-72
2023/08/01 11:21:51;;;;;;;11.17;3.27;;;;;;;;;;5049339;28;20029;-72
2023/08/01 11:24:17;;;;;;;8.18;2.45;;;;;;;;;;5048387;28;20275;-72
2023/08/01 11:26:43;;;;;;;7.13;2.60;;;;;;;;;;5048447;28;20020;-72
2023/08/01 11:29:09;;;;;;;8.48;2.45;;;;;;;;;;5049793;28;20025;-72
2023/08/01 11:31:34;;;;;;;9.90;2.10;;;;;;;;;;5050257;28;20044;-72
2023/08/01 11:33:59;;;;;;;9.25;3.03;;;;;;;;;;5048156;28;20020;-72
2023/08/01 11:36:26;;;;;;;4.67;2.27;;;;;;;;;;5047293;28;20378;-72
2023/08/01 11:38:51;;;;;;;8.15;2.72;;;;;;;;;;5050514;28;20760;-72
2023/08/01 11:41:16;;;;;;;8.48;2.10;;;;;;;;;;5048452;28;20044;-71
2023/08/01 11:43:42;;;;;;;17.25;3.20;;;;;;;;;;5048114;28;20024;-71
2023/08/01 11:46:07;;;;;;;13.45;2.40;;;;;;;;;;5047496;28;20032;-72
2023/08/01 11:48:32;;;;;;;10.85;2.28;;;;;;;;;;5047732;28;20052;-72
2023/08/01 11:50:58;;;;;;;9.32;4.13;;;;;;;;;;5047822;28;20013;-71
2023/08/01 11:53:23;;;;;;;9.50;2.75;;;;;;;;;;5032406;28;20521;-71
2023/08/01 11:55:51;;;;;;;9.37;2.17;;;;;;;;;;5045689;28;20021;-72
2023/08/01 11:58:27;;;;;;;4.75;1.98;;;;;;;;;;5046725;28;20321;-72
2023/08/01 12:01:01;;;;;;;6.55;2.50;;;;;;;;;;5048811;28;20087;-72
2023/08/01 12:03:26;;;;;;;12.07;2.78;;;;;;;;;;5046328;28;20017;-71
2023/08/01 12:05:51;;;;;;;9.33;2.63;;;;;;;;;;5045173;28;20509;-71
2023/08/01 12:08:16;;;;;;;13.35;2.58;;;;;;;;;;5046150;28;20291;-71
2023/08/01 12:10:43;;;;;;;3.60;1.50;;;;;;;;;;5041793;28;20454;-72
2023/08/01 12:13:21;;;;;;;2.42;1.52;;;;;;;;;;5045948;28;20025;-71
2023/08/01 12:15:48;;;;;;;6.15;2.17;;;;;;;;;;5043598;28;20025;-71
2023/08/01 12:18:19;;;;;;;2.15;1.45;;;;;;;;;;5030314;28;20017;-72
2023/08/01 12:20:44;;;;;;;5.10;1.25;;;;;;;;;;5048891;28;20112;-71
2023/08/01 12:23:09;;;;;;;4.57;1.67;;;;;;;;;;5048108;28;20099;-71
2023/08/01 12:25:34;;;;;;;2.53;1.30;;;;;;;;;;5046737;28;20274;-71
2023/08/01 12:28:00;;;;;;;5.03;2.10;;;;;;;;;;5048324;28;20021;-71
2023/08/01 12:30:25;;;;;;;3.53;1.60;;;;;;;;;;5048388;28;20337;-71
2023/08/01 12:32:50;;;;;;;3.50;1.80;;;;;;;;;;5047289;28;20667;-71
2023/08/01 12:35:15;;;;;;;6.57;2.13;;;;;;;;;;5047753;28;20299;-71
2023/08/01 12:37:40;;;;;;;7.47;1.92;;;;;;;;;;5047105;28;20017;-71
2023/08/01 12:40:06;;;;;;;3.58;1.90;;;;;;;;;;5044331;28;20100;-71
2023/08/01 12:42:31;;;;;;;6.28;2.05;;;;;;;;;;5047986;28;20024;-71
2023/08/01 12:44:56;;;;;;;6.27;2.47;;;;;;;;;;5048867;28;20056;-71
2023/08/01 12:47:21;;;;;;;7.87;2.93;;;;;;;;;;5047835;28;20302;-71
2023/08/01 12:49:49;;;;;;;7.20;3.80;;;;;;;;;;5048393;28;20040;-72
2023/08/01 12:52:21;;;;;;;13.82;4.10;;;;;;;;;;5046070;28;20021;-73
2023/08/01 12:54:46;;;;;;;17.20;4.15;;;;;;;;;;5046883;28;20055;-73
2023/08/01 12:57:12;;;;;;;9.63;3.10;;;;;;;;;;5046245;28;20458;-74
2023/08/01 12:59:37;;;;;;;7.90;3.47;;;;;;;;;;5048357;28;20036;-74
2023/08/01 13:02:08;;;;;;;11.90;3.50;;;;;;;;;;5045122;28;20033;-74
2023/08/01 13:04:33;;;;;;;8.00;3.15;;;;;;;;;;5046633;28;20478;-73
2023/08/01 13:06:58;;;;;;;7.97;3.60;;;;;;;;;;5048097;28;20036;-73
2023/08/01 13:09:23;;;;;;;7.90;3.90;;;;;;;;;;5045961;28;20315;-73
2023/08/01 13:11:48;;;;;;;16.02;3.83;;;;;;;;;;5047510;28;20520;-73
2023/08/01 13:14:14;;;;;;;13.75;4.82;;;;;;;;;;5047815;28;20599;-73
2023/08/01 13:16:39;;;;;;;10.93;3.47;;;;;;;;;;5046166;28;20535;-73
2023/08/01 13:19:04;;;;;;;10.87;4.33;;;;;;;;;;5047616;28;20287;-73
2023/08/01 13:21:29;;;;;;;9.55;3.65;;;;;;;;;;5046072;28;20279;-73
2023/08/01 13:23:54;;;;;;;7.87;3.43;;;;;;;;;;5048623;28;20521;-73
2023/08/01 13:26:19;;;;;;;16.07;4.33;;;;;;;;;;5046422;28;20313;-73
2023/08/01 13:28:45;;;;;;;9.93;4.33;;;;;;;;;;5048229;28;20299;-73
2023/08/01 13:31:10;;;;;;;12.40;3.50;;;;;;;;;;5047797;28;20275;-73
2023/08/01 13:33:35;;;;;;;8.23;3.60;;;;;;;;;;5046884;28;20296;-73
2023/08/01 13:36:01;;;;;;;9.73;3.53;;;;;;;;;;5043396;28;20813;-73
2023/08/01 13:38:26;;;;;;;9.20;3.70;;;;;;;;;;5046301;28;20302;-73
2023/08/01 13:40:51;;;;;;;7.87;3.77;;;;;;;;;;5046012;28;20033;-74
2023/08/01 13:43:16;;;;;;;8.47;3.73;;;;;;;;;;5047789;28;20299;-73
2023/08/01 13:45:42;;;;;;;7.33;4.53;;;;;;;;;;5045893;28;20307;-72
2023/08/01 13:48:07;;;;;;;9.82;3.40;;;;;;;;;;5045486;28;20268;-73
2023/08/01 13:50:33;;;;;;;12.18;3.75;;;;;;;;;;5040523;28;20079;-73
2023/08/01 13:52:58;;;;;;;6.75;3.83;;;;;;;;;;5046134;28;20017;-73
2023/08/01 13:55:23;;;;;;;11.47;4.13;;;;;;;;;;5047848;28;20096;-73
2023/08/01 13:57:48;;;;;;;10.55;3.10;;;;;;;;;;5046010;28;20281;-73
2023/08/01 14:00:13;;;;;;;9.53;3.47;;;;;;;;;;5045641;28;20063;-73
2023/08/01 14:02:39;;;;;;;10.63;3.88;;;;;;;;;;5045139;28;20036;-73
2023/08/01 14:05:04;;;;;;;9.27;4.10;;;;;;;;;;5044192;28;20108;-73
2023/08/01 14:07:29;;;;;;;9.90;3.35;;;;;;;;;;5048588;28;20082;-72
2023/08/01 14:09:54;;;;;;;8.87;4.00;;;;;;;;;;5052193;28;20112;-72
2023/08/01 14:12:21;;;;;;;9.57;4.27;;;;;;;;;;5050177;28;20264;-72
2023/08/01 14:14:47;;;;;;;7.32;3.35;;;;;;;;;;5045008;28;20697;-72
2023/08/01 14:17:12;;;;;;;7.90;3.03;;;;;;;;;;5047835;28;20100;-72
2023/08/01 14:19:37;;;;;;;10.23;5.67;;;;;;;;;;5048695;28;20020;-72
2023/08/01 14:22:02;;;;;;;12.80;3.50;;;;;;;;;;5050726;28;20275;-72
2023/08/01 14:24:27;;;;;;;12.88;4.32;;;;;;;;;;5048941;28;20017;-72